sensor_id;sensor_type;location;lat;lon;timestamp;P1;durP1;ratioP1;P2;durP2;ratioP2
12681;SDS011;6405;59.208;18.216;2023-08-30T00:00:40;4.90;;;2.40;;
12681;SDS011;6405;59.208;18.216;2023-08-30T00:03:06;4.53;;;2.50;;
12681;SDS011;6405;59.208;18.216;2023-08-30T00:05:33;3.50;;;2.00;;
12681;SDS011;6405;59.208;18.216;2023-08-30T00:07:59;5.13;;;2.57;;
12681;SDS011;6405;59.208;18.216;2023-08-30T00:10:24;3.73;;;1.93;;
12681;SDS011;6405;59.208;18.216;2023-08-30T00:12:50;3.10;;;2.00;;
12681;SDS011;6405;59.208;18.216;2023-08-30T00:15:16;3.70;;;2.00;;
12681;SDS011;6405;59.208;18.216;2023-08-30T00:17:42;4.40;;;1.90;;
12681;SDS011;6405;59.208;18.216;2023-08-30T00:20:08;2.43;;;2.00;;
12681;SDS011;6405;59.208;18.216;2023-08-30T00:22:34;2.60;;;2.17;;
12681;SDS011;6405;59.208;18.216;2023-08-30T00:25:01;3.50;;;1.97;;
12681;SDS011;6405;59.208;18.216;2023-08-30T00:27:27;4.07;;;2.07;;
12681;SDS011;6405;59.208;18.216;2023-08-30T00:29:52;3.73;;;1.90;;
12681;SDS011;6405;59.208;18.216;2023-08-30T00:32:18;3.27;;;2.30;;
12681;SDS011;6405;59.208;18.216;2023-08-30T00:34:44;4.67;;;2.50;;
12681;SDS011;6405;59.208;18.216;2023-08-30T00:37:10;5.60;;;2.00;;
12681;SDS011;6405;59.208;18.216;2023-08-30T00:39:38;4.30;;;2.20;;
12681;SDS011;6405;59.208;18.216;2023-08-30T00:42:05;7.67;;;2.50;;
12681;SDS011;6405;59.208;18.216;2023-08-30T00:44:32;2.87;;;2.13;;
12681;SDS011;6405;59.208;18.216;2023-08-30T00:46:59;3.50;;;2.10;;
12681;SDS011;6405;59.208;18.216;2023-08-30T00:49:26;2.43;;;2.23;;
12681;SDS011;6405;59.208;18.216;2023-08-30T00:51:52;4.23;;;2.10;;
12681;SDS011;6405;59.208;18.216;2023-08-30T00:54:19;4.50;;;2.03;;
12681;SDS011;6405;59.208;18.216;2023-08-30T00:56:46;2.57;;;2.13;;
12681;SDS011;6405;59.208;18.216;2023-08-30T00:59:12;4.13;;;2.03;;
12681;SDS011;6405;59.208;18.216;2023-08-30T01:01:38;3.47;;;1.90;;
12681;SDS011;6405;59.208;18.216;2023-08-30T01:04:05;6.93;;;2.70;;
12681;SDS011;6405;59.208;18.216;2023-08-30T01:06:31;5.23;;;2.33;;
12681;SDS011;6405;59.208;18.216;2023-08-30T01:08:57;3.97;;;2.47;;
12681;SDS011;6405;59.208;18.216;2023-08-30T01:11:31;4.57;;;2.33;;
12681;SDS011;6405;59.208;18.216;2023-08-30T01:14:08;2.80;;;2.10;;
12681;SDS011;6405;59.208;18.216;2023-08-30T01:16:36;4.63;;;2.20;;
12681;SDS011;6405;59.208;18.216;2023-08-30T01:19:05;2.60;;;2.20;;
12681;SDS011;6405;59.208;18.216;2023-08-30T01:22:01;4.53;;;2.90;;
12681;SDS011;6405;59.208;18.216;2023-08-30T01:24:58;4.57;;;2.40;;
12681;SDS011;6405;59.208;18.216;2023-08-30T01:27:34;5.40;;;2.60;;
12681;SDS011;6405;59.208;18.216;2023-08-30T01:30:02;3.53;;;2.60;;
12681;SDS011;6405;59.208;18.216;2023-08-30T01:32:31;3.53;;;2.73;;
12681;SDS011;6405;59.208;18.216;2023-08-30T01:35:00;3.17;;;2.10;;
12681;SDS011;6405;59.208;18.216;2023-08-30T01:37:27;4.07;;;2.20;;
12681;SDS011;6405;59.208;18.216;2023-08-30T01:39:54;3.37;;;2.30;;
12681;SDS011;6405;59.208;18.216;2023-08-30T01:42:24;3.50;;;2.20;;
12681;SDS011;6405;59.208;18.216;2023-08-30T01:44:52;5.50;;;2.53;;
12681;SDS011;6405;59.208;18.216;2023-08-30T01:47:22;3.73;;;2.27;;
12681;SDS011;6405;59.208;18.216;2023-08-30T01:49:50;3.87;;;2.27;;
12681;SDS011;6405;59.208;18.216;2023-08-30T01:52:17;4.10;;;2.17;;
12681;SDS011;6405;59.208;18.216;2023-08-30T01:54:44;5.00;;;2.30;;
12681;SDS011;6405;59.208;18.216;2023-08-30T01:57:11;3.87;;;2.70;;
12681;SDS011;6405;59.208;18.216;2023-08-30T01:59:37;4.83;;;2.90;;
12681;SDS011;6405;59.208;18.216;2023-08-30T02:02:03;3.03;;;2.60;;
12681;SDS011;6405;59.208;18.216;2023-08-30T02:04:29;5.83;;;3.20;;
12681;SDS011;6405;59.208;18.216;2023-08-30T02:07:03;5.43;;;3.27;;
12681;SDS011;6405;59.208;18.216;2023-08-30T02:09:38;5.30;;;2.73;;
12681;SDS011;6405;59.208;18.216;2023-08-30T02:12:10;3.10;;;2.70;;
12681;SDS011;6405;59.208;18.216;2023-08-30T02:14:41;4.30;;;2.87;;
12681;SDS011;6405;59.208;18.216;2023-08-30T02:17:16;5.73;;;2.87;;
12681;SDS011;6405;59.208;18.216;2023-08-30T02:19:43;5.00;;;2.57;;
12681;SDS011;6405;59.208;18.216;2023-08-30T02:22:10;4.60;;;2.73;;
12681;SDS011;6405;59.208;18.216;2023-08-30T02:24:36;4.63;;;2.63;;
12681;SDS011;6405;59.208;18.216;2023-08-30T02:27:02;5.60;;;3.00;;
12681;SDS011;6405;59.208;18.216;2023-08-30T02:29:27;5.90;;;2.93;;
12681;SDS011;6405;59.208;18.216;2023-08-30T02:31:53;2.93;;;2.40;;
12681;SDS011;6405;59.208;18.216;2023-08-30T02:34:19;6.50;;;3.00;;
12681;SDS011;6405;59.208;18.216;2023-08-30T02:36:44;5.07;;;3.03;;
12681;SDS011;6405;59.208;18.216;2023-08-30T02:39:11;6.17;;;2.80;;
12681;SDS011;6405;59.208;18.216;2023-08-30T02:41:39;3.63;;;2.90;;
12681;SDS011;6405;59.208;18.216;2023-08-30T02:44:05;6.53;;;3.07;;
12681;SDS011;6405;59.208;18.216;2023-08-30T02:46:33;7.83;;;3.07;;
12681;SDS011;6405;59.208;18.216;2023-08-30T02:48:59;6.87;;;3.57;;
12681;SDS011;6405;59.208;18.216;2023-08-30T02:51:24;4.47;;;3.07;;
12681;SDS011;6405;59.208;18.216;2023-08-30T02:53:50;5.37;;;2.97;;
12681;SDS011;6405;59.208;18.216;2023-08-30T02:56:16;5.60;;;3.70;;
12681;SDS011;6405;59.208;18.216;2023-08-30T02:58:41;3.83;;;2.90;;
12681;SDS011;6405;59.208;18.216;2023-08-30T03:01:07;4.17;;;3.10;;
12681;SDS011;6405;59.208;18.216;2023-08-30T03:03:33;4.27;;;3.07;;
12681;SDS011;6405;59.208;18.216;2023-08-30T03:05:58;4.03;;;3.10;;
12681;SDS011;6405;59.208;18.216;2023-08-30T03:08:24;4.47;;;2.83;;
12681;SDS011;6405;59.208;18.216;2023-08-30T03:10:50;5.23;;;2.83;;
12681;SDS011;6405;59.208;18.216;2023-08-30T03:13:15;7.67;;;3.47;;
12681;SDS011;6405;59.208;18.216;2023-08-30T03:15:41;4.63;;;3.10;;
12681;SDS011;6405;59.208;18.216;2023-08-30T03:18:07;7.97;;;3.63;;
12681;SDS011;6405;59.208;18.216;2023-08-30T03:20:32;4.67;;;2.90;;
12681;SDS011;6405;59.208;18.216;2023-08-30T03:22:58;4.07;;;3.33;;
12681;SDS011;6405;59.208;18.216;2023-08-30T03:25:24;4.63;;;2.80;;
12681;SDS011;6405;59.208;18.216;2023-08-30T03:27:50;5.07;;;3.50;;
12681;SDS011;6405;59.208;18.216;2023-08-30T03:30:15;9.50;;;3.30;;
12681;SDS011;6405;59.208;18.216;2023-08-30T03:32:41;6.40;;;3.17;;
12681;SDS011;6405;59.208;18.216;2023-08-30T03:35:07;4.47;;;3.33;;
12681;SDS011;6405;59.208;18.216;2023-08-30T03:37:33;3.47;;;3.17;;
12681;SDS011;6405;59.208;18.216;2023-08-30T03:39:59;6.10;;;3.37;;
12681;SDS011;6405;59.208;18.216;2023-08-30T03:42:24;7.50;;;3.57;;
12681;SDS011;6405;59.208;18.216;2023-08-30T03:44:50;4.90;;;3.20;;
12681;SDS011;6405;59.208;18.216;2023-08-30T03:47:16;6.20;;;3.20;;
12681;SDS011;6405;59.208;18.216;2023-08-30T03:49:43;8.10;;;3.13;;
12681;SDS011;6405;59.208;18.216;2023-08-30T03:52:09;5.10;;;3.20;;
12681;SDS011;6405;59.208;18.216;2023-08-30T03:54:35;5.33;;;3.43;;
12681;SDS011;6405;59.208;18.216;2023-08-30T03:57:01;4.97;;;3.67;;
12681;SDS011;6405;59.208;18.216;2023-08-30T03:59:27;6.47;;;3.77;;
12681;SDS011;6405;59.208;18.216;2023-08-30T04:01:53;5.07;;;3.40;;
12681;SDS011;6405;59.208;18.216;2023-08-30T04:04:19;4.97;;;3.50;;
12681;SDS011;6405;59.208;18.216;2023-08-30T04:06:45;4.53;;;3.10;;
12681;SDS011;6405;59.208;18.216;2023-08-30T04:09:10;9.80;;;3.60;;
12681;SDS011;6405;59.208;18.216;2023-08-30T04:11:36;4.57;;;3.00;;
12681;SDS011;6405;59.208;18.216;2023-08-30T04:14:02;5.67;;;3.20;;
12681;SDS011;6405;59.208;18.216;2023-08-30T04:16:27;5.23;;;3.50;;
12681;SDS011;6405;59.208;18.216;2023-08-30T04:18:54;4.13;;;3.40;;
12681;SDS011;6405;59.208;18.216;2023-08-30T04:21:20;7.63;;;3.73;;
12681;SDS011;6405;59.208;18.216;2023-08-30T04:23:46;6.07;;;3.53;;
12681;SDS011;6405;59.208;18.216;2023-08-30T04:26:11;6.30;;;3.70;;
12681;SDS011;6405;59.208;18.216;2023-08-30T04:28:37;6.90;;;3.70;;
12681;SDS011;6405;59.208;18.216;2023-08-30T04:31:03;5.13;;;3.60;;
12681;SDS011;6405;59.208;18.216;2023-08-30T04:33:28;5.07;;;3.77;;
12681;SDS011;6405;59.208;18.216;2023-08-30T04:35:54;4.93;;;3.87;;
12681;SDS011;6405;59.208;18.216;2023-08-30T04:38:20;8.27;;;3.80;;
12681;SDS011;6405;59.208;18.216;2023-08-30T04:40:47;9.60;;;4.57;;
12681;SDS011;6405;59.208;18.216;2023-08-30T04:43:14;6.67;;;3.80;;
12681;SDS011;6405;59.208;18.216;2023-08-30T04:45:40;6.37;;;4.17;;
12681;SDS011;6405;59.208;18.216;2023-08-30T04:48:05;5.53;;;4.00;;
12681;SDS011;6405;59.208;18.216;2023-08-30T04:50:32;4.40;;;3.97;;
12681;SDS011;6405;59.208;18.216;2023-08-30T04:52:57;5.63;;;4.03;;
12681;SDS011;6405;59.208;18.216;2023-08-30T04:55:28;7.07;;;3.60;;
12681;SDS011;6405;59.208;18.216;2023-08-30T04:57:54;7.73;;;4.20;;
12681;SDS011;6405;59.208;18.216;2023-08-30T05:00:19;5.77;;;3.83;;
12681;SDS011;6405;59.208;18.216;2023-08-30T05:02:45;9.37;;;4.00;;
12681;SDS011;6405;59.208;18.216;2023-08-30T05:05:12;5.60;;;4.10;;
12681;SDS011;6405;59.208;18.216;2023-08-30T05:07:38;5.93;;;3.97;;
12681;SDS011;6405;59.208;18.216;2023-08-30T05:10:04;6.00;;;4.23;;
12681;SDS011;6405;59.208;18.216;2023-08-30T05:12:31;8.30;;;4.67;;
12681;SDS011;6405;59.208;18.216;2023-08-30T05:14:59;6.93;;;3.67;;
12681;SDS011;6405;59.208;18.216;2023-08-30T05:17:25;6.83;;;4.37;;
12681;SDS011;6405;59.208;18.216;2023-08-30T05:19:53;8.83;;;4.40;;
12681;SDS011;6405;59.208;18.216;2023-08-30T05:22:19;5.30;;;4.10;;
12681;SDS011;6405;59.208;18.216;2023-08-30T05:24:44;6.80;;;3.70;;
12681;SDS011;6405;59.208;18.216;2023-08-30T05:27:10;8.33;;;4.20;;
12681;SDS011;6405;59.208;18.216;2023-08-30T05:29:37;6.57;;;4.27;;
12681;SDS011;6405;59.208;18.216;2023-08-30T05:32:02;7.37;;;4.90;;
12681;SDS011;6405;59.208;18.216;2023-08-30T05:34:28;6.50;;;4.43;;
12681;SDS011;6405;59.208;18.216;2023-08-30T05:36:54;8.07;;;4.80;;
12681;SDS011;6405;59.208;18.216;2023-08-30T05:39:20;5.07;;;4.10;;
12681;SDS011;6405;59.208;18.216;2023-08-30T05:41:45;5.50;;;4.77;;
12681;SDS011;6405;59.208;18.216;2023-08-30T05:44:11;6.00;;;4.13;;
12681;SDS011;6405;59.208;18.216;2023-08-30T05:46:37;5.80;;;4.30;;
12681;SDS011;6405;59.208;18.216;2023-08-30T05:49:03;5.23;;;4.70;;
12681;SDS011;6405;59.208;18.216;2023-08-30T05:51:29;5.47;;;4.00;;
12681;SDS011;6405;59.208;18.216;2023-08-30T05:53:54;6.13;;;3.90;;
12681;SDS011;6405;59.208;18.216;2023-08-30T05:56:20;5.90;;;3.80;;
12681;SDS011;6405;59.208;18.216;2023-08-30T05:58:46;7.27;;;4.53;;
12681;SDS011;6405;59.208;18.216;2023-08-30T06:01:11;5.23;;;3.97;;
12681;SDS011;6405;59.208;18.216;2023-08-30T06:03:39;7.47;;;4.07;;
12681;SDS011;6405;59.208;18.216;2023-08-30T06:06:04;4.97;;;3.90;;
12681;SDS011;6405;59.208;18.216;2023-08-30T06:08:30;5.60;;;3.87;;
12681;SDS011;6405;59.208;18.216;2023-08-30T06:10:56;5.73;;;4.23;;
12681;SDS011;6405;59.208;18.216;2023-08-30T06:13:22;4.07;;;3.40;;
12681;SDS011;6405;59.208;18.216;2023-08-30T06:15:51;8.07;;;3.70;;
12681;SDS011;6405;59.208;18.216;2023-08-30T06:18:17;4.03;;;3.40;;
12681;SDS011;6405;59.208;18.216;2023-08-30T06:20:43;4.47;;;3.50;;
12681;SDS011;6405;59.208;18.216;2023-08-30T06:23:09;5.33;;;3.53;;
12681;SDS011;6405;59.208;18.216;2023-08-30T06:25:35;4.50;;;3.50;;
12681;SDS011;6405;59.208;18.216;2023-08-30T06:28:01;6.20;;;3.73;;
12681;SDS011;6405;59.208;18.216;2023-08-30T06:30:28;4.23;;;3.70;;
12681;SDS011;6405;59.208;18.216;2023-08-30T06:32:57;4.83;;;3.80;;
12681;SDS011;6405;59.208;18.216;2023-08-30T06:35:23;5.63;;;3.60;;
12681;SDS011;6405;59.208;18.216;2023-08-30T06:37:49;6.17;;;3.83;;
12681;SDS011;6405;59.208;18.216;2023-08-30T06:40:14;5.07;;;4.13;;
12681;SDS011;6405;59.208;18.216;2023-08-30T06:42:40;4.23;;;3.83;;
12681;SDS011;6405;59.208;18.216;2023-08-30T06:45:06;5.47;;;3.90;;
12681;SDS011;6405;59.208;18.216;2023-08-30T06:47:32;5.00;;;3.53;;
12681;SDS011;6405;59.208;18.216;2023-08-30T06:49:58;4.47;;;3.33;;
12681;SDS011;6405;59.208;18.216;2023-08-30T06:52:25;4.17;;;2.93;;
12681;SDS011;6405;59.208;18.216;2023-08-30T06:54:52;4.73;;;3.20;;
12681;SDS011;6405;59.208;18.216;2023-08-30T06:57:17;3.43;;;3.13;;
12681;SDS011;6405;59.208;18.216;2023-08-30T06:59:43;4.47;;;3.47;;
12681;SDS011;6405;59.208;18.216;2023-08-30T07:02:09;4.63;;;3.60;;
12681;SDS011;6405;59.208;18.216;2023-08-30T07:04:35;3.13;;;2.83;;
12681;SDS011;6405;59.208;18.216;2023-08-30T07:07:00;5.17;;;3.47;;
12681;SDS011;6405;59.208;18.216;2023-08-30T07:09:26;5.30;;;3.57;;
12681;SDS011;6405;59.208;18.216;2023-08-30T07:11:57;5.53;;;3.33;;
12681;SDS011;6405;59.208;18.216;2023-08-30T07:14:23;5.80;;;3.33;;
12681;SDS011;6405;59.208;18.216;2023-08-30T07:16:48;6.97;;;4.13;;
12681;SDS011;6405;59.208;18.216;2023-08-30T07:19:14;4.77;;;3.50;;
12681;SDS011;6405;59.208;18.216;2023-08-30T07:21:41;3.97;;;3.43;;
12681;SDS011;6405;59.208;18.216;2023-08-30T07:24:07;5.50;;;3.60;;
12681;SDS011;6405;59.208;18.216;2023-08-30T07:26:33;6.67;;;2.90;;
12681;SDS011;6405;59.208;18.216;2023-08-30T07:29:00;3.53;;;3.00;;
12681;SDS011;6405;59.208;18.216;2023-08-30T07:31:25;3.67;;;3.13;;
12681;SDS011;6405;59.208;18.216;2023-08-30T07:33:51;4.63;;;2.80;;
12681;SDS011;6405;59.208;18.216;2023-08-30T07:36:17;2.60;;;2.30;;
12681;SDS011;6405;59.208;18.216;2023-08-30T07:38:42;4.13;;;2.47;;
12681;SDS011;6405;59.208;18.216;2023-08-30T07:41:09;2.40;;;2.20;;
12681;SDS011;6405;59.208;18.216;2023-08-30T07:43:35;3.80;;;2.20;;
12681;SDS011;6405;59.208;18.216;2023-08-30T07:46:00;2.57;;;2.23;;
12681;SDS011;6405;59.208;18.216;2023-08-30T07:48:26;4.60;;;2.13;;
12681;SDS011;6405;59.208;18.216;2023-08-30T07:50:52;2.93;;;2.00;;
12681;SDS011;6405;59.208;18.216;2023-08-30T07:53:17;3.70;;;1.90;;
12681;SDS011;6405;59.208;18.216;2023-08-30T07:55:47;2.40;;;1.77;;
12681;SDS011;6405;59.208;18.216;2023-08-30T07:58:14;2.07;;;1.87;;
12681;SDS011;6405;59.208;18.216;2023-08-30T08:00:40;2.33;;;1.87;;
12681;SDS011;6405;59.208;18.216;2023-08-30T08:03:06;2.07;;;1.50;;
12681;SDS011;6405;59.208;18.216;2023-08-30T08:05:31;3.70;;;2.00;;
12681;SDS011;6405;59.208;18.216;2023-08-30T08:07:59;2.13;;;1.80;;
12681;SDS011;6405;59.208;18.216;2023-08-30T08:10:31;3.60;;;1.93;;
12681;SDS011;6405;59.208;18.216;2023-08-30T08:12:59;5.27;;;2.07;;
12681;SDS011;6405;59.208;18.216;2023-08-30T08:15:25;1.97;;;1.70;;
12681;SDS011;6405;59.208;18.216;2023-08-30T08:17:51;4.63;;;1.93;;
12681;SDS011;6405;59.208;18.216;2023-08-30T08:20:17;5.00;;;2.23;;
12681;SDS011;6405;59.208;18.216;2023-08-30T08:22:43;3.03;;;2.10;;
12681;SDS011;6405;59.208;18.216;2023-08-30T08:25:08;6.40;;;2.00;;
12681;SDS011;6405;59.208;18.216;2023-08-30T08:27:37;2.83;;;2.10;;
12681;SDS011;6405;59.208;18.216;2023-08-30T08:30:03;2.10;;;1.70;;
12681;SDS011;6405;59.208;18.216;2023-08-30T08:32:30;5.13;;;2.33;;
12681;SDS011;6405;59.208;18.216;2023-08-30T08:34:56;5.17;;;2.17;;
12681;SDS011;6405;59.208;18.216;2023-08-30T08:37:22;2.87;;;2.10;;
12681;SDS011;6405;59.208;18.216;2023-08-30T08:39:48;2.30;;;2.00;;
12681;SDS011;6405;59.208;18.216;2023-08-30T08:42:17;2.40;;;1.80;;
12681;SDS011;6405;59.208;18.216;2023-08-30T08:44:47;3.73;;;2.00;;
12681;SDS011;6405;59.208;18.216;2023-08-30T08:47:19;2.57;;;2.00;;
12681;SDS011;6405;59.208;18.216;2023-08-30T08:49:46;1.60;;;1.43;;
12681;SDS011;6405;59.208;18.216;2023-08-30T08:52:13;2.40;;;1.70;;
12681;SDS011;6405;59.208;18.216;2023-08-30T08:54:40;2.77;;;1.40;;
12681;SDS011;6405;59.208;18.216;2023-08-30T08:57:08;1.87;;;1.57;;
12681;SDS011;6405;59.208;18.216;2023-08-30T08:59:35;2.37;;;1.63;;
12681;SDS011;6405;59.208;18.216;2023-08-30T09:02:01;1.60;;;1.43;;
12681;SDS011;6405;59.208;18.216;2023-08-30T09:04:28;2.83;;;1.27;;
12681;SDS011;6405;59.208;18.216;2023-08-30T09:06:56;1.70;;;1.40;;
12681;SDS011;6405;59.208;18.216;2023-08-30T09:09:24;1.90;;;1.40;;
12681;SDS011;6405;59.208;18.216;2023-08-30T09:11:50;1.87;;;1.50;;
12681;SDS011;6405;59.208;18.216;2023-08-30T09:14:16;1.83;;;1.70;;
12681;SDS011;6405;59.208;18.216;2023-08-30T09:16:42;1.90;;;1.40;;
12681;SDS011;6405;59.208;18.216;2023-08-30T09:19:07;1.40;;;1.30;;
12681;SDS011;6405;59.208;18.216;2023-08-30T09:21:35;3.93;;;1.40;;
12681;SDS011;6405;59.208;18.216;2023-08-30T09:24:01;1.37;;;1.27;;
12681;SDS011;6405;59.208;18.216;2023-08-30T09:26:31;1.50;;;1.40;;
12681;SDS011;6405;59.208;18.216;2023-08-30T09:29:08;2.00;;;1.40;;
12681;SDS011;6405;59.208;18.216;2023-08-30T09:31:34;1.90;;;1.20;;
12681;SDS011;6405;59.208;18.216;2023-08-30T09:34:01;2.53;;;1.50;;
12681;SDS011;6405;59.208;18.216;2023-08-30T09:36:34;3.53;;;1.33;;
12681;SDS011;6405;59.208;18.216;2023-08-30T09:39:02;3.13;;;1.33;;
12681;SDS011;6405;59.208;18.216;2023-08-30T09:41:30;1.50;;;1.40;;
12681;SDS011;6405;59.208;18.216;2023-08-30T09:43:57;2.43;;;1.30;;
12681;SDS011;6405;59.208;18.216;2023-08-30T09:46:24;1.53;;;1.30;;
12681;SDS011;6405;59.208;18.216;2023-08-30T09:48:50;1.30;;;1.20;;
12681;SDS011;6405;59.208;18.216;2023-08-30T09:51:18;1.63;;;1.40;;
12681;SDS011;6405;59.208;18.216;2023-08-30T09:53:45;1.47;;;1.20;;
12681;SDS011;6405;59.208;18.216;2023-08-30T09:56:19;2.37;;;1.23;;
12681;SDS011;6405;59.208;18.216;2023-08-30T09:58:47;1.70;;;1.27;;
12681;SDS011;6405;59.208;18.216;2023-08-30T10:01:13;1.60;;;1.30;;
12681;SDS011;6405;59.208;18.216;2023-08-30T10:03:40;2.40;;;1.30;;
12681;SDS011;6405;59.208;18.216;2023-08-30T10:06:06;1.13;;;1.07;;
12681;SDS011;6405;59.208;18.216;2023-08-30T10:08:33;2.63;;;1.30;;
12681;SDS011;6405;59.208;18.216;2023-08-30T10:11:01;1.10;;;1.00;;
12681;SDS011;6405;59.208;18.216;2023-08-30T10:13:28;1.27;;;1.17;;
12681;SDS011;6405;59.208;18.216;2023-08-30T10:15:57;1.57;;;1.20;;
12681;SDS011;6405;59.208;18.216;2023-08-30T10:18:27;1.83;;;1.10;;
12681;SDS011;6405;59.208;18.216;2023-08-30T10:20:54;1.20;;;1.10;;
12681;SDS011;6405;59.208;18.216;2023-08-30T10:23:21;1.10;;;1.00;;
12681;SDS011;6405;59.208;18.216;2023-08-30T10:25:48;3.97;;;1.27;;
12681;SDS011;6405;59.208;18.216;2023-08-30T10:28:15;1.27;;;1.17;;
12681;SDS011;6405;59.208;18.216;2023-08-30T10:30:42;1.17;;;1.07;;
12681;SDS011;6405;59.208;18.216;2023-08-30T10:33:12;2.37;;;1.37;;
12681;SDS011;6405;59.208;18.216;2023-08-30T10:35:48;3.47;;;1.30;;
12681;SDS011;6405;59.208;18.216;2023-08-30T10:38:24;2.80;;;1.30;;
12681;SDS011;6405;59.208;18.216;2023-08-30T10:40:54;2.23;;;1.30;;
12681;SDS011;6405;59.208;18.216;2023-08-30T10:43:30;1.50;;;1.13;;
12681;SDS011;6405;59.208;18.216;2023-08-30T10:45:59;2.70;;;1.13;;
12681;SDS011;6405;59.208;18.216;2023-08-30T10:48:38;1.13;;;1.00;;
12681;SDS011;6405;59.208;18.216;2023-08-30T10:51:20;1.30;;;1.00;;
12681;SDS011;6405;59.208;18.216;2023-08-30T10:53:59;1.20;;;1.10;;
12681;SDS011;6405;59.208;18.216;2023-08-30T10:56:28;2.10;;;1.23;;
12681;SDS011;6405;59.208;18.216;2023-08-30T10:58:55;1.23;;;0.90;;
12681;SDS011;6405;59.208;18.216;2023-08-30T11:01:20;2.17;;;1.00;;
12681;SDS011;6405;59.208;18.216;2023-08-30T11:03:46;1.73;;;0.90;;
12681;SDS011;6405;59.208;18.216;2023-08-30T11:06:14;1.20;;;1.10;;
12681;SDS011;6405;59.208;18.216;2023-08-30T11:08:42;1.27;;;1.10;;
12681;SDS011;6405;59.208;18.216;2023-08-30T11:11:09;1.83;;;1.30;;
12681;SDS011;6405;59.208;18.216;2023-08-30T11:13:37;1.60;;;1.10;;
12681;SDS011;6405;59.208;18.216;2023-08-30T11:16:03;1.80;;;1.20;;
12681;SDS011;6405;59.208;18.216;2023-08-30T11:18:29;2.00;;;1.20;;
12681;SDS011;6405;59.208;18.216;2023-08-30T11:21:02;1.20;;;1.10;;
12681;SDS011;6405;59.208;18.216;2023-08-30T11:23:28;1.57;;;1.10;;
12681;SDS011;6405;59.208;18.216;2023-08-30T11:25:54;2.27;;;1.20;;
12681;SDS011;6405;59.208;18.216;2023-08-30T11:28:23;1.93;;;1.40;;
12681;SDS011;6405;59.208;18.216;2023-08-30T11:30:49;1.50;;;1.13;;
12681;SDS011;6405;59.208;18.216;2023-08-30T11:33:17;1.43;;;1.10;;
12681;SDS011;6405;59.208;18.216;2023-08-30T11:35:44;1.27;;;1.17;;
12681;SDS011;6405;59.208;18.216;2023-08-30T11:38:10;1.30;;;1.10;;
12681;SDS011;6405;59.208;18.216;2023-08-30T11:40:36;0.83;;;0.80;;
12681;SDS011;6405;59.208;18.216;2023-08-30T11:43:02;1.40;;;1.10;;
12681;SDS011;6405;59.208;18.216;2023-08-30T11:45:28;2.57;;;1.03;;
12681;SDS011;6405;59.208;18.216;2023-08-30T11:47:59;1.20;;;1.10;;
12681;SDS011;6405;59.208;18.216;2023-08-30T11:50:25;1.73;;;1.33;;
12681;SDS011;6405;59.208;18.216;2023-08-30T11:52:51;2.40;;;1.10;;
12681;SDS011;6405;59.208;18.216;2023-08-30T11:55:19;1.50;;;1.27;;
12681;SDS011;6405;59.208;18.216;2023-08-30T11:57:49;1.63;;;1.20;;
12681;SDS011;6405;59.208;18.216;2023-08-30T12:00:18;1.20;;;1.10;;
12681;SDS011;6405;59.208;18.216;2023-08-30T12:02:45;1.23;;;1.13;;
12681;SDS011;6405;59.208;18.216;2023-08-30T12:05:12;2.13;;;1.50;;
12681;SDS011;6405;59.208;18.216;2023-08-30T12:07:39;2.37;;;1.30;;
12681;SDS011;6405;59.208;18.216;2023-08-30T12:10:06;1.80;;;1.60;;
12681;SDS011;6405;59.208;18.216;2023-08-30T12:12:32;1.67;;;1.33;;
12681;SDS011;6405;59.208;18.216;2023-08-30T12:15:01;1.97;;;1.50;;
12681;SDS011;6405;59.208;18.216;2023-08-30T12:17:34;2.17;;;1.30;;
12681;SDS011;6405;59.208;18.216;2023-08-30T12:20:00;3.03;;;1.87;;
12681;SDS011;6405;59.208;18.216;2023-08-30T12:22:37;1.90;;;1.30;;
12681;SDS011;6405;59.208;18.216;2023-08-30T12:25:03;2.60;;;1.30;;
12681;SDS011;6405;59.208;18.216;2023-08-30T12:27:29;2.67;;;1.30;;
12681;SDS011;6405;59.208;18.216;2023-08-30T12:29:55;1.53;;;1.40;;
12681;SDS011;6405;59.208;18.216;2023-08-30T12:32:21;1.60;;;1.50;;
12681;SDS011;6405;59.208;18.216;2023-08-30T12:34:46;3.33;;;1.63;;
12681;SDS011;6405;59.208;18.216;2023-08-30T12:37:12;2.00;;;1.60;;
12681;SDS011;6405;59.208;18.216;2023-08-30T12:39:38;2.77;;;1.63;;
12681;SDS011;6405;59.208;18.216;2023-08-30T12:42:03;2.97;;;1.80;;
12681;SDS011;6405;59.208;18.216;2023-08-30T12:44:29;2.77;;;1.30;;
12681;SDS011;6405;59.208;18.216;2023-08-30T12:46:55;2.30;;;1.40;;
12681;SDS011;6405;59.208;18.216;2023-08-30T12:49:21;2.13;;;1.20;;
12681;SDS011;6405;59.208;18.216;2023-08-30T12:51:46;1.40;;;1.30;;
12681;SDS011;6405;59.208;18.216;2023-08-30T12:54:12;1.47;;;1.37;;
12681;SDS011;6405;59.208;18.216;2023-08-30T12:56:38;1.60;;;1.50;;
12681;SDS011;6405;59.208;18.216;2023-08-30T12:59:03;3.20;;;1.70;;
12681;SDS011;6405;59.208;18.216;2023-08-30T13:01:29;2.60;;;1.60;;
12681;SDS011;6405;59.208;18.216;2023-08-30T13:03:55;1.60;;;1.50;;
12681;SDS011;6405;59.208;18.216;2023-08-30T13:06:20;3.90;;;1.73;;
12681;SDS011;6405;59.208;18.216;2023-08-30T13:08:46;2.30;;;1.50;;
12681;SDS011;6405;59.208;18.216;2023-08-30T13:11:12;1.87;;;1.60;;
12681;SDS011;6405;59.208;18.216;2023-08-30T13:13:37;2.10;;;1.40;;
12681;SDS011;6405;59.208;18.216;2023-08-30T13:16:03;2.00;;;1.47;;
12681;SDS011;6405;59.208;18.216;2023-08-30T13:18:29;1.30;;;1.20;;
12681;SDS011;6405;59.208;18.216;2023-08-30T13:20:54;3.33;;;1.20;;
12681;SDS011;6405;59.208;18.216;2023-08-30T13:23:20;2.30;;;1.20;;
12681;SDS011;6405;59.208;18.216;2023-08-30T13:25:47;1.73;;;1.20;;
12681;SDS011;6405;59.208;18.216;2023-08-30T13:28:13;1.33;;;1.07;;
12681;SDS011;6405;59.208;18.216;2023-08-30T13:30:45;2.97;;;1.43;;
12681;SDS011;6405;59.208;18.216;2023-08-30T13:33:12;1.30;;;1.20;;
12681;SDS011;6405;59.208;18.216;2023-08-30T13:35:40;1.33;;;1.20;;
12681;SDS011;6405;59.208;18.216;2023-08-30T13:38:06;1.40;;;1.30;;
12681;SDS011;6405;59.208;18.216;2023-08-30T13:40:32;2.50;;;1.10;;
12681;SDS011;6405;59.208;18.216;2023-08-30T13:42:57;2.50;;;1.33;;
12681;SDS011;6405;59.208;18.216;2023-08-30T13:45:23;1.20;;;1.10;;
12681;SDS011;6405;59.208;18.216;2023-08-30T13:47:49;1.37;;;1.27;;
12681;SDS011;6405;59.208;18.216;2023-08-30T13:50:16;2.50;;;1.40;;
12681;SDS011;6405;59.208;18.216;2023-08-30T13:52:42;2.27;;;1.43;;
12681;SDS011;6405;59.208;18.216;2023-08-30T13:55:08;2.37;;;2.17;;
12681;SDS011;6405;59.208;18.216;2023-08-30T13:57:34;1.80;;;1.70;;
12681;SDS011;6405;59.208;18.216;2023-08-30T13:59:59;2.40;;;1.23;;
12681;SDS011;6405;59.208;18.216;2023-08-30T14:02:28;2.27;;;1.20;;
12681;SDS011;6405;59.208;18.216;2023-08-30T14:04:54;2.33;;;1.30;;
12681;SDS011;6405;59.208;18.216;2023-08-30T14:07:20;2.30;;;1.00;;
12681;SDS011;6405;59.208;18.216;2023-08-30T14:09:45;1.30;;;1.13;;
12681;SDS011;6405;59.208;18.216;2023-08-30T14:12:11;1.63;;;1.13;;
12681;SDS011;6405;59.208;18.216;2023-08-30T14:14:37;2.33;;;1.00;;
12681;SDS011;6405;59.208;18.216;2023-08-30T14:17:02;3.53;;;1.20;;
12681;SDS011;6405;59.208;18.216;2023-08-30T14:19:28;1.37;;;1.20;;
12681;SDS011;6405;59.208;18.216;2023-08-30T14:21:54;3.03;;;1.10;;
12681;SDS011;6405;59.208;18.216;2023-08-30T14:24:21;1.97;;;1.00;;
12681;SDS011;6405;59.208;18.216;2023-08-30T14:26:46;1.63;;;1.03;;
12681;SDS011;6405;59.208;18.216;2023-08-30T14:29:12;0.80;;;0.80;;
12681;SDS011;6405;59.208;18.216;2023-08-30T14:31:38;1.13;;;1.03;;
12681;SDS011;6405;59.208;18.216;2023-08-30T14:34:03;1.30;;;0.90;;
12681;SDS011;6405;59.208;18.216;2023-08-30T14:36:29;1.93;;;1.10;;
12681;SDS011;6405;59.208;18.216;2023-08-30T14:38:54;1.50;;;1.00;;
12681;SDS011;6405;59.208;18.216;2023-08-30T14:41:20;1.00;;;0.90;;
12681;SDS011;6405;59.208;18.216;2023-08-30T14:43:46;1.87;;;1.10;;
12681;SDS011;6405;59.208;18.216;2023-08-30T14:46:11;0.97;;;0.70;;